sensor_id;sensor_type;location;lat;lon;timestamp;P1;durP1;ratioP1;P2;durP2;ratioP2
15915;SDS011;8057;47.830;-3.870;2023-01-28T00:03:01;8.20;;;6.63;;
15915;SDS011;8057;47.830;-3.870;2023-01-28T11:41:02;3.07;;;1.60;;
15915;SDS011;8057;47.830;-3.870;2023-01-28T13:20:46;2.63;;;1.77;;
15915;SDS011;8057;47.830;-3.870;2023-01-28T13:30:26;2.17;;;1.43;;
15915;SDS011;8057;47.830;-3.870;2023-01-28T13:49:41;5.00;;;1.50;;
15915;SDS011;8057;47.830;-3.870;2023-01-28T13:54:03;2.63;;;1.40;;
15915;SDS011;8057;47.830;-3.870;2023-01-28T14:29:12;6.63;;;1.40;;
15915;SDS011;8057;47.830;-3.870;2023-01-28T14:33:46;3.27;;;1.70;;
15915;SDS011;8057;47.830;-3.870;2023-01-28T14:38:06;3.97;;;1.77;;
15915;SDS011;8057;47.830;-3.870;2023-01-28T14:52:28;2.03;;;1.57;;
15915;SDS011;8057;47.830;-3.870;2023-01-28T14:57:06;4.10;;;1.73;;
15915;SDS011;8057;47.830;-3.870;2023-01-28T15:01:41;1.97;;;1.53;;
15915;SDS011;8057;47.830;-3.870;2023-01-28T15:37:45;3.77;;;1.73;;
15915;SDS011;8057;47.830;-3.870;2023-01-28T15:42:44;3.93;;;1.60;;
15915;SDS011;8057;47.830;-3.870;2023-01-28T15:47:15;6.37;;;2.27;;
15915;SDS011;8057;47.830;-3.870;2023-01-28T15:57:48;2.57;;;1.80;;
15915;SDS011;8057;47.830;-3.870;2023-01-28T16:02:30;3.97;;;1.63;;
15915;SDS011;8057;47.830;-3.870;2023-01-28T16:07:02;4.00;;;1.53;;
15915;SDS011;8057;47.830;-3.870;2023-01-28T16:11:34;3.03;;;1.50;;
15915;SDS011;8057;47.830;-3.870;2023-01-28T16:21:01;2.40;;;1.40;;
15915;SDS011;8057;47.830;-3.870;2023-01-28T16:25:27;5.57;;;1.70;;
15915;SDS011;8057;47.830;-3.870;2023-01-28T16:29:44;6.73;;;1.83;;
15915;SDS011;8057;47.830;-3.870;2023-01-28T16:33:55;4.03;;;1.63;;
15915;SDS011;8057;47.830;-3.870;2023-01-28T16:38:37;4.40;;;1.87;;
15915;SDS011;8057;47.830;-3.870;2023-01-28T16:43:20;4.80;;;1.50;;
15915;SDS011;8057;47.830;-3.870;2023-01-28T16:47:53;3.77;;;1.87;;
15915;SDS011;8057;47.830;-3.870;2023-01-28T16:52:10;3.80;;;1.87;;
15915;SDS011;8057;47.830;-3.870;2023-01-28T16:56:28;4.70;;;1.80;;
15915;SDS011;8057;47.830;-3.870;2023-01-28T17:01:08;5.27;;;2.23;;
15915;SDS011;8057;47.830;-3.870;2023-01-28T17:05:46;5.07;;;3.37;;
15915;SDS011;8057;47.830;-3.870;2023-01-28T17:10:16;9.60;;;5.53;;
15915;SDS011;8057;47.830;-3.870;2023-01-28T17:19:15;4.83;;;2.87;;
15915;SDS011;8057;47.830;-3.870;2023-01-28T17:24:19;6.37;;;4.30;;
15915;SDS011;8057;47.830;-3.870;2023-01-28T17:28:44;6.77;;;4.27;;
15915;SDS011;8057;47.830;-3.870;2023-01-28T17:37:45;4.83;;;2.70;;
15915;SDS011;8057;47.830;-3.870;2023-01-28T17:42:06;6.77;;;2.60;;
15915;SDS011;8057;47.830;-3.870;2023-01-28T17:51:23;6.37;;;2.20;;
15915;SDS011;8057;47.830;-3.870;2023-01-28T18:43:54;3.00;;;1.90;;
15915;SDS011;8057;47.830;-3.870;2023-01-28T18:48:19;5.27;;;1.90;;
15915;SDS011;8057;47.830;-3.870;2023-01-28T18:52:29;4.30;;;1.80;;
15915;SDS011;8057;47.830;-3.870;2023-01-28T18:56:53;3.70;;;2.07;;
15915;SDS011;8057;47.830;-3.870;2023-01-28T19:01:10;7.07;;;2.60;;
15915;SDS011;8057;47.830;-3.870;2023-01-28T19:05:19;4.03;;;1.73;;
15915;SDS011;8057;47.830;-3.870;2023-01-28T19:09:28;5.17;;;2.00;;
15915;SDS011;8057;47.830;-3.870;2023-01-28T19:13:37;3.10;;;2.03;;
15915;SDS011;8057;47.830;-3.870;2023-01-28T19:17:48;3.93;;;2.07;;
15915;SDS011;8057;47.830;-3.870;2023-01-28T19:21:58;6.33;;;2.00;;
15915;SDS011;8057;47.830;-3.870;2023-01-28T19:26:07;5.43;;;2.30;;
15915;SDS011;8057;47.830;-3.870;2023-01-28T19:30:16;4.93;;;2.70;;
15915;SDS011;8057;47.830;-3.870;2023-01-28T19:34:27;5.17;;;2.80;;
15915;SDS011;8057;47.830;-3.870;2023-01-28T19:38:37;3.73;;;2.40;;
15915;SDS011;8057;47.830;-3.870;2023-01-28T19:42:47;4.57;;;2.60;;
15915;SDS011;8057;47.830;-3.870;2023-01-28T19:47:00;4.37;;;3.37;;
15915;SDS011;8057;47.830;-3.870;2023-01-28T19:51:13;6.83;;;3.60;;
15915;SDS011;8057;47.830;-3.870;2023-01-28T19:55:23;6.27;;;3.67;;
15915;SDS011;8057;47.830;-3.870;2023-01-28T19:59:32;4.60;;;3.70;;
15915;SDS011;8057;47.830;-3.870;2023-01-28T20:03:42;6.40;;;4.10;;
15915;SDS011;8057;47.830;-3.870;2023-01-28T20:07:53;5.53;;;3.90;;
15915;SDS011;8057;47.830;-3.870;2023-01-28T20:12:02;5.73;;;3.90;;
15915;SDS011;8057;47.830;-3.870;2023-01-28T20:16:14;4.77;;;3.80;;
15915;SDS011;8057;47.830;-3.870;2023-01-28T20:20:26;3.00;;;2.67;;
15915;SDS011;8057;47.830;-3.870;2023-01-28T20:24:37;4.97;;;3.00;;
15915;SDS011;8057;47.830;-3.870;2023-01-28T20:28:47;5.13;;;3.60;;
15915;SDS011;8057;47.830;-3.870;2023-01-28T20:32:57;4.60;;;3.50;;
15915;SDS011;8057;47.830;-3.870;2023-01-28T20:37:07;3.47;;;3.17;;
15915;SDS011;8057;47.830;-3.870;2023-01-28T20:41:20;3.17;;;2.90;;
15915;SDS011;8057;47.830;-3.870;2023-01-28T20:45:30;3.97;;;3.57;;
15915;SDS011;8057;47.830;-3.870;2023-01-28T20:49:40;5.97;;;3.70;;
15915;SDS011;8057;47.830;-3.870;2023-01-28T20:53:50;4.77;;;3.87;;
15915;SDS011;8057;47.830;-3.870;2023-01-28T20:58:02;5.83;;;3.77;;
15915;SDS011;8057;47.830;-3.870;2023-01-28T21:02:12;5.87;;;3.77;;
15915;SDS011;8057;47.830;-3.870;2023-01-28T21:06:22;6.03;;;3.53;;
15915;SDS011;8057;47.830;-3.870;2023-01-28T21:10:34;3.83;;;3.30;;
15915;SDS011;8057;47.830;-3.870;2023-01-28T21:14:45;5.00;;;3.50;;
15915;SDS011;8057;47.830;-3.870;2023-01-28T21:18:55;4.50;;;3.47;;
15915;SDS011;8057;47.830;-3.870;2023-01-28T21:23:04;5.17;;;3.13;;
15915;SDS011;8057;47.830;-3.870;2023-01-28T21:27:13;4.47;;;3.17;;
15915;SDS011;8057;47.830;-3.870;2023-01-28T21:31:24;3.93;;;3.30;;
15915;SDS011;8057;47.830;-3.870;2023-01-28T21:35:35;6.13;;;3.63;;
15915;SDS011;8057;47.830;-3.870;2023-01-28T21:39:44;4.37;;;3.30;;
15915;SDS011;8057;47.830;-3.870;2023-01-28T21:43:54;4.27;;;3.40;;
15915;SDS011;8057;47.830;-3.870;2023-01-28T21:48:06;5.07;;;3.20;;
15915;SDS011;8057;47.830;-3.870;2023-01-28T21:52:15;3.63;;;3.00;;
15915;SDS011;8057;47.830;-3.870;2023-01-28T21:56:24;3.43;;;2.63;;
15915;SDS011;8057;47.830;-3.870;2023-01-28T22:00:34;3.37;;;3.00;;
15915;SDS011;8057;47.830;-3.870;2023-01-28T22:04:45;4.87;;;2.97;;
15915;SDS011;8057;47.830;-3.870;2023-01-28T22:08:55;4.10;;;3.50;;
15915;SDS011;8057;47.830;-3.870;2023-01-28T22:13:05;4.17;;;3.60;;
15915;SDS011;8057;47.830;-3.870;2023-01-28T22:17:21;4.93;;;3.30;;
15915;SDS011;8057;47.830;-3.870;2023-01-28T22:26:39;5.73;;;2.87;;
15915;SDS011;8057;47.830;-3.870;2023-01-28T22:40:21;6.53;;;2.93;;
15915;SDS011;8057;47.830;-3.870;2023-01-28T22:45:58;5.80;;;2.97;;
